sensor_id;sensor_type;location;lat;lon;timestamp;temperature;humidity
9658;DHT22;4867;48.112;11.622;2022-12-29T00:00:56;3.40;99.90
9658;DHT22;4867;48.112;11.622;2022-12-29T00:03:26;3.40;99.90
9658;DHT22;4867;48.112;11.622;2022-12-29T00:05:55;3.40;99.90
9658;DHT22;4867;48.112;11.622;2022-12-29T00:08:22;3.50;99.90
9658;DHT22;4867;48.112;11.622;2022-12-29T00:11:23;3.50;99.90
9658;DHT22;4867;48.112;11.622;2022-12-29T00:13:51;3.50;99.90
9658;DHT22;4867;48.112;11.622;2022-12-29T00:16:40;3.50;99.90
9658;DHT22;4867;48.112;11.622;2022-12-29T00:19:07;3.60;99.90
9658;DHT22;4867;48.112;11.622;2022-12-29T00:21:54;3.60;99.90
9658;DHT22;4867;48.112;11.622;2022-12-29T00:24:40;3.60;99.90
9658;DHT22;4867;48.112;11.622;2022-12-29T00:27:30;3.60;99.90
9658;DHT22;4867;48.112;11.622;2022-12-29T00:30:18;3.60;99.90
9658;DHT22;4867;48.112;11.622;2022-12-29T00:33:16;3.60;99.90
9658;DHT22;4867;48.112;11.622;2022-12-29T00:36:27;3.60;99.90
9658;DHT22;4867;48.112;11.622;2022-12-29T00:39:02;3.60;99.90
9658;DHT22;4867;48.112;11.622;2022-12-29T00:41:49;3.60;99.90
9658;DHT22;4867;48.112;11.622;2022-12-29T00:44:34;3.60;99.90
9658;DHT22;4867;48.112;11.622;2022-12-29T00:47:02;3.50;99.90
9658;DHT22;4867;48.112;11.622;2022-12-29T00:49:32;3.50;99.90
9658;DHT22;4867;48.112;11.622;2022-12-29T00:52:06;3.50;99.90
9658;DHT22;4867;48.112;11.622;2022-12-29T00:54:35;3.50;99.90
9658;DHT22;4867;48.112;11.622;2022-12-29T00:57:07;3.50;99.90
9658;DHT22;4867;48.112;11.622;2022-12-29T00:59:35;3.50;99.90
9658;DHT22;4867;48.112;11.622;2022-12-29T01:02:03;3.50;99.90
9658;DHT22;4867;48.112;11.622;2022-12-29T01:04:31;3.50;99.90
9658;DHT22;4867;48.112;11.622;2022-12-29T01:06:59;3.50;99.90
9658;DHT22;4867;48.112;11.622;2022-12-29T01:09:26;3.50;99.90
9658;DHT22;4867;48.112;11.622;2022-12-29T01:12:12;3.50;99.90
9658;DHT22;4867;48.112;11.622;2022-12-29T01:14:41;3.50;99.90
9658;DHT22;4867;48.112;11.622;2022-12-29T01:17:08;3.40;99.90
9658;DHT22;4867;48.112;11.622;2022-12-29T01:19:35;3.50;99.90
9658;DHT22;4867;48.112;11.622;2022-12-29T01:22:02;3.50;99.90
9658;DHT22;4867;48.112;11.622;2022-12-29T01:24:29;3.50;99.90
9658;DHT22;4867;48.112;11.622;2022-12-29T01:26:57;3.50;99.90
9658;DHT22;4867;48.112;11.622;2022-12-29T01:29:24;3.50;99.90
9658;DHT22;4867;48.112;11.622;2022-12-29T01:31:51;3.50;99.90
9658;DHT22;4867;48.112;11.622;2022-12-29T01:34:19;3.50;99.90
9658;DHT22;4867;48.112;11.622;2022-12-29T01:36:46;3.50;99.90
9658;DHT22;4867;48.112;11.622;2022-12-29T01:39:13;3.50;99.90
9658;DHT22;4867;48.112;11.622;2022-12-29T01:41:41;3.50;99.90
9658;DHT22;4867;48.112;11.622;2022-12-29T01:47:09;3.40;99.90
9658;DHT22;4867;48.112;11.622;2022-12-29T01:49:38;3.40;99.90
9658;DHT22;4867;48.112;11.622;2022-12-29T01:52:07;3.40;99.90
9658;DHT22;4867;48.112;11.622;2022-12-29T01:54:37;3.40;99.90
9658;DHT22;4867;48.112;11.622;2022-12-29T01:57:10;3.40;99.90
9658;DHT22;4867;48.112;11.622;2022-12-29T01:59:43;3.40;99.90
9658;DHT22;4867;48.112;11.622;2022-12-29T02:02:12;3.40;99.90
9658;DHT22;4867;48.112;11.622;2022-12-29T02:04:41;3.50;99.90
9658;DHT22;4867;48.112;11.622;2022-12-29T02:07:19;3.50;99.90
9658;DHT22;4867;48.112;11.622;2022-12-29T02:09:47;3.50;99.90
9658;DHT22;4867;48.112;11.622;2022-12-29T02:12:17;3.50;99.90
9658;DHT22;4867;48.112;11.622;2022-12-29T02:14:45;3.50;99.90
9658;DHT22;4867;48.112;11.622;2022-12-29T02:17:25;3.50;99.90
9658;DHT22;4867;48.112;11.622;2022-12-29T02:20:25;3.50;99.90
9658;DHT22;4867;48.112;11.622;2022-12-29T02:23:27;3.50;99.90
9658;DHT22;4867;48.112;11.622;2022-12-29T02:26:05;3.60;99.90
9658;DHT22;4867;48.112;11.622;2022-12-29T02:32:25;3.60;99.90
9658;DHT22;4867;48.112;11.622;2022-12-29T02:34:56;3.60;99.90
9658;DHT22;4867;48.112;11.622;2022-12-29T02:37:25;3.70;99.90
9658;DHT22;4867;48.112;11.622;2022-12-29T02:40:17;3.70;99.90
9658;DHT22;4867;48.112;11.622;2022-12-29T02:43:03;3.80;99.90
9658;DHT22;4867;48.112;11.622;2022-12-29T02:45:41;3.80;99.90
9658;DHT22;4867;48.112;11.622;2022-12-29T02:51:01;3.90;99.90
9658;DHT22;4867;48.112;11.622;2022-12-29T02:53:32;3.90;99.90
9658;DHT22;4867;48.112;11.622;2022-12-29T02:56:19;3.90;99.90
9658;DHT22;4867;48.112;11.622;2022-12-29T02:58:47;3.90;99.90
9658;DHT22;4867;48.112;11.622;2022-12-29T03:01:29;3.90;99.90
9658;DHT22;4867;48.112;11.622;2022-12-29T03:06:52;4.00;99.90
9658;DHT22;4867;48.112;11.622;2022-12-29T03:09:52;4.00;99.90
9658;DHT22;4867;48.112;11.622;2022-12-29T03:12:56;4.00;99.90
9658;DHT22;4867;48.112;11.622;2022-12-29T03:16:14;4.10;99.90
9658;DHT22;4867;48.112;11.622;2022-12-29T03:18:55;4.20;99.90
9658;DHT22;4867;48.112;11.622;2022-12-29T03:24:20;4.30;99.90
9658;DHT22;4867;48.112;11.622;2022-12-29T03:26:49;4.30;99.90
9658;DHT22;4867;48.112;11.622;2022-12-29T03:29:20;4.40;99.90
9658;DHT22;4867;48.112;11.622;2022-12-29T03:31:50;4.40;99.90
9658;DHT22;4867;48.112;11.622;2022-12-29T03:34:20;4.50;99.90
9658;DHT22;4867;48.112;11.622;2022-12-29T03:36:52;4.50;99.90
9658;DHT22;4867;48.112;11.622;2022-12-29T03:39:22;4.60;99.90
9658;DHT22;4867;48.112;11.622;2022-12-29T03:42:04;4.60;99.90
9658;DHT22;4867;48.112;11.622;2022-12-29T03:44:42;4.60;99.90
9658;DHT22;4867;48.112;11.622;2022-12-29T03:47:14;4.70;99.90
9658;DHT22;4867;48.112;11.622;2022-12-29T03:49:43;4.70;99.90
9658;DHT22;4867;48.112;11.622;2022-12-29T03:52:11;4.80;99.90
9658;DHT22;4867;48.112;11.622;2022-12-29T03:54:43;4.80;99.90
9658;DHT22;4867;48.112;11.622;2022-12-29T03:57:11;4.90;99.90
9658;DHT22;4867;48.112;11.622;2022-12-29T03:59:49;4.90;99.90
9658;DHT22;4867;48.112;11.622;2022-12-29T04:02:17;5.00;99.90
9658;DHT22;4867;48.112;11.622;2022-12-29T04:04:45;5.10;99.90
9658;DHT22;4867;48.112;11.622;2022-12-29T04:07:12;5.10;99.90
9658;DHT22;4867;48.112;11.622;2022-12-29T04:09:41;5.20;99.90
9658;DHT22;4867;48.112;11.622;2022-12-29T04:12:11;5.20;99.90
9658;DHT22;4867;48.112;11.622;2022-12-29T04:14:38;5.30;99.90
9658;DHT22;4867;48.112;11.622;2022-12-29T04:17:06;5.30;99.90
9658;DHT22;4867;48.112;11.622;2022-12-29T04:19:34;5.40;99.90
9658;DHT22;4867;48.112;11.622;2022-12-29T04:22:01;5.40;99.90
9658;DHT22;4867;48.112;11.622;2022-12-29T04:24:29;5.50;99.90
9658;DHT22;4867;48.112;11.622;2022-12-29T04:26:56;5.50;99.90
9658;DHT22;4867;48.112;11.622;2022-12-29T04:29:47;5.50;99.90
9658;DHT22;4867;48.112;11.622;2022-12-29T04:32:37;5.60;99.90
9658;DHT22;4867;48.112;11.622;2022-12-29T04:35:06;5.60;99.90
9658;DHT22;4867;48.112;11.622;2022-12-29T04:37:33;5.60;99.90
9658;DHT22;4867;48.112;11.622;2022-12-29T04:40:00;5.60;99.90
9658;DHT22;4867;48.112;11.622;2022-12-29T04:42:29;5.70;99.90
9658;DHT22;4867;48.112;11.622;2022-12-29T04:44:56;5.70;99.90
9658;DHT22;4867;48.112;11.622;2022-12-29T04:47:42;5.80;99.90
9658;DHT22;4867;48.112;11.622;2022-12-29T04:50:37;5.70;99.90
9658;DHT22;4867;48.112;11.622;2022-12-29T04:53:14;5.80;99.90
9658;DHT22;4867;48.112;11.622;2022-12-29T04:55:43;5.80;99.90
9658;DHT22;4867;48.112;11.622;2022-12-29T04:58:10;5.80;99.90
9658;DHT22;4867;48.112;11.622;2022-12-29T05:00:43;5.80;99.90
9658;DHT22;4867;48.112;11.622;2022-12-29T05:03:10;5.80;99.90
9658;DHT22;4867;48.112;11.622;2022-12-29T05:05:40;5.80;99.90
9658;DHT22;4867;48.112;11.622;2022-12-29T05:08:08;5.80;99.90
9658;DHT22;4867;48.112;11.622;2022-12-29T05:10:43;5.90;99.90
9658;DHT22;4867;48.112;11.622;2022-12-29T05:13:11;5.90;99.90
9658;DHT22;4867;48.112;11.622;2022-12-29T05:15:39;5.90;99.90
9658;DHT22;4867;48.112;11.622;2022-12-29T05:18:07;5.90;99.90
9658;DHT22;4867;48.112;11.622;2022-12-29T05:20:34;5.90;99.90
9658;DHT22;4867;48.112;11.622;2022-12-29T05:23:02;5.90;99.90
9658;DHT22;4867;48.112;11.622;2022-12-29T05:25:29;6.00;99.90
9658;DHT22;4867;48.112;11.622;2022-12-29T05:28:08;6.00;99.90
9658;DHT22;4867;48.112;11.622;2022-12-29T05:30:43;6.00;99.90
9658;DHT22;4867;48.112;11.622;2022-12-29T05:33:10;6.00;99.90
9658;DHT22;4867;48.112;11.622;2022-12-29T05:35:39;6.00;99.90
9658;DHT22;4867;48.112;11.622;2022-12-29T05:38:07;6.00;99.90
9658;DHT22;4867;48.112;11.622;2022-12-29T05:40:34;6.00;99.90
9658;DHT22;4867;48.112;11.622;2022-12-29T05:43:06;6.00;99.90
9658;DHT22;4867;48.112;11.622;2022-12-29T05:45:54;6.00;99.90
9658;DHT22;4867;48.112;11.622;2022-12-29T05:48:42;6.10;99.90
9658;DHT22;4867;48.112;11.622;2022-12-29T05:51:29;6.10;99.90
9658;DHT22;4867;48.112;11.622;2022-12-29T05:53:57;6.10;99.90
9658;DHT22;4867;48.112;11.622;2022-12-29T05:56:24;6.10;99.90
9658;DHT22;4867;48.112;11.622;2022-12-29T05:58:57;6.10;99.90
9658;DHT22;4867;48.112;11.622;2022-12-29T06:01:24;6.00;99.90
9658;DHT22;4867;48.112;11.622;2022-12-29T06:03:52;6.10;99.90
9658;DHT22;4867;48.112;11.622;2022-12-29T06:06:20;6.00;99.90
9658;DHT22;4867;48.112;11.622;2022-12-29T06:08:47;6.10;99.90
9658;DHT22;4867;48.112;11.622;2022-12-29T06:11:15;6.10;99.90
9658;DHT22;4867;48.112;11.622;2022-12-29T06:13:48;6.10;99.90
9658;DHT22;4867;48.112;11.622;2022-12-29T06:16:16;6.10;99.90
9658;DHT22;4867;48.112;11.622;2022-12-29T06:18:44;6.00;99.90
9658;DHT22;4867;48.112;11.622;2022-12-29T06:21:11;6.00;99.90
9658;DHT22;4867;48.112;11.622;2022-12-29T06:23:39;6.00;99.90
9658;DHT22;4867;48.112;11.622;2022-12-29T06:26:06;5.90;99.90
9658;DHT22;4867;48.112;11.622;2022-12-29T06:28:33;6.00;99.90
9658;DHT22;4867;48.112;11.622;2022-12-29T06:31:01;6.00;99.90
9658;DHT22;4867;48.112;11.622;2022-12-29T06:33:30;6.00;99.90
9658;DHT22;4867;48.112;11.622;2022-12-29T06:35:57;6.00;99.90
9658;DHT22;4867;48.112;11.622;2022-12-29T06:38:24;6.00;99.90
9658;DHT22;4867;48.112;11.622;2022-12-29T06:40:51;6.00;99.90
9658;DHT22;4867;48.112;11.622;2022-12-29T06:43:19;6.00;99.90
9658;DHT22;4867;48.112;11.622;2022-12-29T06:46:04;6.00;99.90
9658;DHT22;4867;48.112;11.622;2022-12-29T06:48:32;6.00;99.90
9658;DHT22;4867;48.112;11.622;2022-12-29T06:50:59;6.00;99.90
9658;DHT22;4867;48.112;11.622;2022-12-29T06:53:26;6.00;99.90
9658;DHT22;4867;48.112;11.622;2022-12-29T06:55:53;6.00;99.90
9658;DHT22;4867;48.112;11.622;2022-12-29T06:58:21;6.00;99.90
9658;DHT22;4867;48.112;11.622;2022-12-29T07:00:48;6.00;99.90
9658;DHT22;4867;48.112;11.622;2022-12-29T07:03:15;6.00;99.90
9658;DHT22;4867;48.112;11.622;2022-12-29T07:05:43;6.00;99.90
9658;DHT22;4867;48.112;11.622;2022-12-29T07:08:10;6.00;99.90
9658;DHT22;4867;48.112;11.622;2022-12-29T07:10:37;6.00;99.90
9658;DHT22;4867;48.112;11.622;2022-12-29T07:13:04;6.00;99.90
9658;DHT22;4867;48.112;11.622;2022-12-29T07:15:35;6.10;99.90
9658;DHT22;4867;48.112;11.622;2022-12-29T07:18:03;6.10;99.90
9658;DHT22;4867;48.112;11.622;2022-12-29T07:20:31;6.10;99.90
9658;DHT22;4867;48.112;11.622;2022-12-29T07:22:58;6.10;99.90
9658;DHT22;4867;48.112;11.622;2022-12-29T07:25:25;6.00;99.90
9658;DHT22;4867;48.112;11.622;2022-12-29T07:27:53;6.00;99.90
9658;DHT22;4867;48.112;11.622;2022-12-29T07:30:20;6.10;99.90
9658;DHT22;4867;48.112;11.622;2022-12-29T07:32:48;6.10;99.90
9658;DHT22;4867;48.112;11.622;2022-12-29T07:35:15;6.20;99.90
9658;DHT22;4867;48.112;11.622;2022-12-29T07:37:43;6.20;99.90
9658;DHT22;4867;48.112;11.622;2022-12-29T07:40:11;6.20;99.90
9658;DHT22;4867;48.112;11.622;2022-12-29T07:42:40;6.30;99.90
9658;DHT22;4867;48.112;11.622;2022-12-29T07:45:09;6.30;99.90
9658;DHT22;4867;48.112;11.622;2022-12-29T07:47:48;6.30;99.90
9658;DHT22;4867;48.112;11.622;2022-12-29T07:50:16;6.30;99.90
9658;DHT22;4867;48.112;11.622;2022-12-29T07:52:44;6.40;99.90
9658;DHT22;4867;48.112;11.622;2022-12-29T07:55:13;6.30;99.90
9658;DHT22;4867;48.112;11.622;2022-12-29T07:57:41;6.40;99.90
9658;DHT22;4867;48.112;11.622;2022-12-29T08:00:09;6.40;99.90
9658;DHT22;4867;48.112;11.622;2022-12-29T08:02:39;6.40;99.90
9658;DHT22;4867;48.112;11.622;2022-12-29T08:05:06;6.50;99.90
9658;DHT22;4867;48.112;11.622;2022-12-29T08:07:34;6.50;99.90
9658;DHT22;4867;48.112;11.622;2022-12-29T08:10:01;6.60;99.90
9658;DHT22;4867;48.112;11.622;2022-12-29T08:12:28;6.60;99.90
9658;DHT22;4867;48.112;11.622;2022-12-29T08:14:55;6.70;99.90
9658;DHT22;4867;48.112;11.622;2022-12-29T08:17:23;6.70;99.90
9658;DHT22;4867;48.112;11.622;2022-12-29T08:19:50;6.80;99.90
9658;DHT22;4867;48.112;11.622;2022-12-29T08:22:17;6.80;99.90
9658;DHT22;4867;48.112;11.622;2022-12-29T08:24:44;6.90;99.90
9658;DHT22;4867;48.112;11.622;2022-12-29T08:27:11;7.00;99.90
9658;DHT22;4867;48.112;11.622;2022-12-29T08:29:47;7.00;99.90
9658;DHT22;4867;48.112;11.622;2022-12-29T08:32:14;7.00;99.90
9658;DHT22;4867;48.112;11.622;2022-12-29T08:34:41;7.10;99.90
9658;DHT22;4867;48.112;11.622;2022-12-29T08:37:09;7.10;99.90
9658;DHT22;4867;48.112;11.622;2022-12-29T08:39:36;7.10;99.90
9658;DHT22;4867;48.112;11.622;2022-12-29T08:42:03;7.10;99.90
9658;DHT22;4867;48.112;11.622;2022-12-29T08:44:30;7.20;99.90
9658;DHT22;4867;48.112;11.622;2022-12-29T08:46:57;7.30;99.90
9658;DHT22;4867;48.112;11.622;2022-12-29T08:49:25;7.40;99.90
9658;DHT22;4867;48.112;11.622;2022-12-29T08:51:52;7.60;99.90
9658;DHT22;4867;48.112;11.622;2022-12-29T08:54:19;7.70;99.90
9658;DHT22;4867;48.112;11.622;2022-12-29T08:56:46;7.90;99.90
9658;DHT22;4867;48.112;11.622;2022-12-29T08:59:15;8.00;99.90
9658;DHT22;4867;48.112;11.622;2022-12-29T09:01:45;8.10;99.90
9658;DHT22;4867;48.112;11.622;2022-12-29T09:04:12;8.10;99.90
9658;DHT22;4867;48.112;11.622;2022-12-29T09:06:44;8.30;99.90
9658;DHT22;4867;48.112;11.622;2022-12-29T09:09:12;8.30;99.90
9658;DHT22;4867;48.112;11.622;2022-12-29T09:11:39;8.40;99.90
9658;DHT22;4867;48.112;11.622;2022-12-29T09:14:06;8.40;99.90
9658;DHT22;4867;48.112;11.622;2022-12-29T09:16:34;8.50;99.90
9658;DHT22;4867;48.112;11.622;2022-12-29T09:19:03;8.50;99.90
9658;DHT22;4867;48.112;11.622;2022-12-29T09:21:30;8.60;99.90
9658;DHT22;4867;48.112;11.622;2022-12-29T09:23:58;8.60;99.90
9658;DHT22;4867;48.112;11.622;2022-12-29T09:26:25;8.70;99.90
9658;DHT22;4867;48.112;11.622;2022-12-29T09:28:52;8.80;99.90
9658;DHT22;4867;48.112;11.622;2022-12-29T09:31:20;8.80;99.90
9658;DHT22;4867;48.112;11.622;2022-12-29T09:33:47;8.90;99.90
9658;DHT22;4867;48.112;11.622;2022-12-29T09:36:14;9.00;99.90
9658;DHT22;4867;48.112;11.622;2022-12-29T09:38:41;9.10;99.90
9658;DHT22;4867;48.112;11.622;2022-12-29T09:41:25;9.20;99.90
9658;DHT22;4867;48.112;11.622;2022-12-29T09:46:40;9.60;99.90
9658;DHT22;4867;48.112;11.622;2022-12-29T09:51:46;9.80;99.90
9658;DHT22;4867;48.112;11.622;2022-12-29T09:57:05;10.00;99.90
9658;DHT22;4867;48.112;11.622;2022-12-29T09:59:42;10.10;99.90
9658;DHT22;4867;48.112;11.622;2022-12-29T10:02:39;10.30;99.90
9658;DHT22;4867;48.112;11.622;2022-12-29T10:05:40;10.20;99.90
9658;DHT22;4867;48.112;11.622;2022-12-29T10:11:10;10.30;99.90
9658;DHT22;4867;48.112;11.622;2022-12-29T10:17:07;10.40;99.90
9658;DHT22;4867;48.112;11.622;2022-12-29T10:22:54;10.40;99.90
9658;DHT22;4867;48.112;11.622;2022-12-29T10:25:25;10.50;99.90
9658;DHT22;4867;48.112;11.622;2022-12-29T10:28:10;10.50;99.90
9658;DHT22;4867;48.112;11.622;2022-12-29T10:30:40;10.50;99.90
9658;DHT22;4867;48.112;11.622;2022-12-29T10:33:12;10.60;99.90
9658;DHT22;4867;48.112;11.622;2022-12-29T10:35:41;10.50;99.90
9658;DHT22;4867;48.112;11.622;2022-12-29T10:38:21;10.60;99.90
9658;DHT22;4867;48.112;11.622;2022-12-29T10:41:07;10.60;99.90
9658;DHT22;4867;48.112;11.622;2022-12-29T10:43:47;10.60;99.90
9658;DHT22;4867;48.112;11.622;2022-12-29T10:46:25;10.60;99.90
9658;DHT22;4867;48.112;11.622;2022-12-29T10:48:54;10.60;99.90
9658;DHT22;4867;48.112;11.622;2022-12-29T10:51:38;10.60;99.90
9658;DHT22;4867;48.112;11.622;2022-12-29T10:54:13;10.60;99.90
9658;DHT22;4867;48.112;11.622;2022-12-29T10:57:28;10.70;99.90
9658;DHT22;4867;48.112;11.622;2022-12-29T10:59:31;10.70;99.90
9658;DHT22;4867;48.112;11.622;2022-12-29T11:07:20;10.80;99.90
9658;DHT22;4867;48.112;11.622;2022-12-29T11:09:53;10.90;99.90
9658;DHT22;4867;48.112;11.622;2022-12-29T11:12:30;11.00;99.90
9658;DHT22;4867;48.112;11.622;2022-12-29T11:20:34;11.40;99.90
9658;DHT22;4867;48.112;11.622;2022-12-29T11:23:03;11.50;99.90
9658;DHT22;4867;48.112;11.622;2022-12-29T11:25:31;11.60;99.90
9658;DHT22;4867;48.112;11.622;2022-12-29T11:28:15;11.80;99.90
9658;DHT22;4867;48.112;11.622;2022-12-29T11:30:43;11.90;99.70
9658;DHT22;4867;48.112;11.622;2022-12-29T11:33:10;12.10;99.90
9658;DHT22;4867;48.112;11.622;2022-12-29T11:35:44;12.20;99.90
9658;DHT22;4867;48.112;11.622;2022-12-29T11:38:24;12.20;99.90
9658;DHT22;4867;48.112;11.622;2022-12-29T11:40:54;12.40;99.40
9658;DHT22;4867;48.112;11.622;2022-12-29T11:43:34;12.50;99.60
9658;DHT22;4867;48.112;11.622;2022-12-29T11:46:04;12.50;99.90
9658;DHT22;4867;48.112;11.622;2022-12-29T11:48:38;12.60;99.90
9658;DHT22;4867;48.112;11.622;2022-12-29T11:51:07;12.60;99.10
9658;DHT22;4867;48.112;11.622;2022-12-29T11:53:45;12.60;98.30
9658;DHT22;4867;48.112;11.622;2022-12-29T11:56:20;12.50;98.20
9658;DHT22;4867;48.112;11.622;2022-12-29T11:58:50;12.50;97.30
9658;DHT22;4867;48.112;11.622;2022-12-29T12:01:26;12.50;99.20
9658;DHT22;4867;48.112;11.622;2022-12-29T12:04:14;12.50;99.00
9658;DHT22;4867;48.112;11.622;2022-12-29T12:15:03;12.50;96.80
9658;DHT22;4867;48.112;11.622;2022-12-29T12:20:31;12.50;97.40
9658;DHT22;4867;48.112;11.622;2022-12-29T12:25:50;12.50;97.90
9658;DHT22;4867;48.112;11.622;2022-12-29T12:28:28;12.50;97.40
9658;DHT22;4867;48.112;11.622;2022-12-29T12:31:11;12.60;98.00
9658;DHT22;4867;48.112;11.622;2022-12-29T12:33:46;12.60;97.30
9658;DHT22;4867;48.112;11.622;2022-12-29T12:36:30;12.60;98.20
9658;DHT22;4867;48.112;11.622;2022-12-29T12:39:12;12.70;97.60
9658;DHT22;4867;48.112;11.622;2022-12-29T12:44:50;12.70;97.90
9658;DHT22;4867;48.112;11.622;2022-12-29T12:59:02;12.80;98.20
9658;DHT22;4867;48.112;11.622;2022-12-29T13:01:46;12.80;98.40
9658;DHT22;4867;48.112;11.622;2022-12-29T13:15:47;12.70;98.80
9658;DHT22;4867;48.112;11.622;2022-12-29T13:26:44;12.50;99.50
9658;DHT22;4867;48.112;11.622;2022-12-29T13:31:52;12.50;99.30
9658;DHT22;4867;48.112;11.622;2022-12-29T13:37:15;12.50;99.90
9658;DHT22;4867;48.112;11.622;2022-12-29T13:39:49;12.50;99.60
9658;DHT22;4867;48.112;11.622;2022-12-29T13:42:19;12.40;99.90
9658;DHT22;4867;48.112;11.622;2022-12-29T13:45:02;12.30;99.80
9658;DHT22;4867;48.112;11.622;2022-12-29T13:47:40;12.40;99.40
9658;DHT22;4867;48.112;11.622;2022-12-29T13:50:16;12.40;99.90
9658;DHT22;4867;48.112;11.622;2022-12-29T13:55:37;12.30;99.90
9658;DHT22;4867;48.112;11.622;2022-12-29T13:58:38;12.20;99.90
9658;DHT22;4867;48.112;11.622;2022-12-29T14:01:29;12.30;99.90
9658;DHT22;4867;48.112;11.622;2022-12-29T14:03:59;12.20;99.90
9658;DHT22;4867;48.112;11.622;2022-12-29T14:06:29;12.20;99.90
9658;DHT22;4867;48.112;11.622;2022-12-29T14:09:05;12.10;99.90
9658;DHT22;4867;48.112;11.622;2022-12-29T14:11:39;12.10;99.90
9658;DHT22;4867;48.112;11.622;2022-12-29T14:14:34;12.10;99.90
9658;DHT22;4867;48.112;11.622;2022-12-29T14:17:11;12.00;99.90
9658;DHT22;4867;48.112;11.622;2022-12-29T14:19:45;12.00;99.90
9658;DHT22;4867;48.112;11.622;2022-12-29T14:22:13;11.90;99.90
9658;DHT22;4867;48.112;11.622;2022-12-29T14:24:58;11.80;99.90
9658;DHT22;4867;48.112;11.622;2022-12-29T14:29:56;11.70;99.90
9658;DHT22;4867;48.112;11.622;2022-12-29T14:34:55;11.70;99.90
9658;DHT22;4867;48.112;11.622;2022-12-29T14:37:29;11.60;99.90
9658;DHT22;4867;48.112;11.622;2022-12-29T14:42:33;11.50;99.90
9658;DHT22;4867;48.112;11.622;2022-12-29T14:45:06;11.50;99.90
9658;DHT22;4867;48.112;11.622;2022-12-29T14:47:44;11.40;99.90
9658;DHT22;4867;48.112;11.622;2022-12-29T14:50:14;11.30;99.90
9658;DHT22;4867;48.112;11.622;2022-12-29T14:53:05;11.30;99.90
9658;DHT22;4867;48.112;11.622;2022-12-29T14:55:40;11.30;99.90
9658;DHT22;4867;48.112;11.622;2022-12-29T14:58:27;11.20;99.90
9658;DHT22;4867;48.112;11.622;2022-12-29T15:00:55;11.10;99.90
9658;DHT22;4867;48.112;11.622;2022-12-29T15:03:36;10.90;99.90
9658;DHT22;4867;48.112;11.622;2022-12-29T15:06:07;10.90;99.90
9658;DHT22;4867;48.112;11.622;2022-12-29T15:08:45;10.90;99.90
9658;DHT22;4867;48.112;11.622;2022-12-29T15:11:16;10.80;99.90
9658;DHT22;4867;48.112;11.622;2022-12-29T15:13:45;10.70;99.90
9658;DHT22;4867;48.112;11.622;2022-12-29T15:16:30;10.60;99.90
9658;DHT22;4867;48.112;11.622;2022-12-29T15:18:58;10.50;99.90
9658;DHT22;4867;48.112;11.622;2022-12-29T15:21:35;10.50;99.90
9658;DHT22;4867;48.112;11.622;2022-12-29T15:24:04;10.40;99.90
9658;DHT22;4867;48.112;11.622;2022-12-29T15:26:40;10.30;99.90
9658;DHT22;4867;48.112;11.622;2022-12-29T15:29:45;10.20;99.90
9658;DHT22;4867;48.112;11.622;2022-12-29T15:34:44;10.10;99.90
9658;DHT22;4867;48.112;11.622;2022-12-29T15:37:20;10.00;99.90
9658;DHT22;4867;48.112;11.622;2022-12-29T15:39:49;9.90;99.90
9658;DHT22;4867;48.112;11.622;2022-12-29T15:44:51;9.80;99.90
9658;DHT22;4867;48.112;11.622;2022-12-29T15:47:30;9.80;99.90
9658;DHT22;4867;48.112;11.622;2022-12-29T15:50:06;9.70;99.90
9658;DHT22;4867;48.112;11.622;2022-12-29T15:52:39;9.70;99.90
9658;DHT22;4867;48.112;11.622;2022-12-29T15:55:20;9.70;99.90
9658;DHT22;4867;48.112;11.622;2022-12-29T15:57:48;9.60;99.90
9658;DHT22;4867;48.112;11.622;2022-12-29T16:00:24;9.60;99.90
9658;DHT22;4867;48.112;11.622;2022-12-29T16:02:54;9.50;99.90
9658;DHT22;4867;48.112;11.622;2022-12-29T16:05:22;9.40;99.90
9658;DHT22;4867;48.112;11.622;2022-12-29T16:07:58;9.40;99.90
9658;DHT22;4867;48.112;11.622;2022-12-29T16:10:40;9.40;99.90
9658;DHT22;4867;48.112;11.622;2022-12-29T16:13:23;9.40;99.90
9658;DHT22;4867;48.112;11.622;2022-12-29T16:16:18;9.40;99.90
9658;DHT22;4867;48.112;11.622;2022-12-29T16:18:43;9.40;99.90
9658;DHT22;4867;48.112;11.622;2022-12-29T16:21:27;9.30;99.90
9658;DHT22;4867;48.112;11.622;2022-12-29T16:24:00;9.30;99.90
9658;DHT22;4867;48.112;11.622;2022-12-29T16:26:28;9.30;99.90
9658;DHT22;4867;48.112;11.622;2022-12-29T16:29:00;9.30;99.90
9658;DHT22;4867;48.112;11.622;2022-12-29T16:31:57;9.20;99.90
9658;DHT22;4867;48.112;11.622;2022-12-29T16:37:24;9.10;99.90
9658;DHT22;4867;48.112;11.622;2022-12-29T16:39:52;9.10;99.90
9658;DHT22;4867;48.112;11.622;2022-12-29T16:50:36;9.10;99.90
9658;DHT22;4867;48.112;11.622;2022-12-29T16:53:05;9.10;99.90
9658;DHT22;4867;48.112;11.622;2022-12-29T16:55:34;9.10;99.90
9658;DHT22;4867;48.112;11.622;2022-12-29T16:58:02;9.10;99.90
9658;DHT22;4867;48.112;11.622;2022-12-29T17:00:34;9.10;99.90
9658;DHT22;4867;48.112;11.622;2022-12-29T17:03:03;9.10;99.90
9658;DHT22;4867;48.112;11.622;2022-12-29T17:05:30;9.10;99.90
9658;DHT22;4867;48.112;11.622;2022-12-29T17:07:57;9.10;99.90
9658;DHT22;4867;48.112;11.622;2022-12-29T17:10:28;9.10;99.90
9658;DHT22;4867;48.112;11.622;2022-12-29T17:13:15;9.10;99.90
9658;DHT22;4867;48.112;11.622;2022-12-29T17:15:42;9.10;99.90
9658;DHT22;4867;48.112;11.622;2022-12-29T17:18:10;9.10;99.90
9658;DHT22;4867;48.112;11.622;2022-12-29T17:20:40;9.10;99.90
9658;DHT22;4867;48.112;11.622;2022-12-29T17:23:15;9.10;99.90
9658;DHT22;4867;48.112;11.622;2022-12-29T17:25:50;9.10;99.90
9658;DHT22;4867;48.112;11.622;2022-12-29T17:28:29;9.20;99.90
9658;DHT22;4867;48.112;11.622;2022-12-29T17:31:00;9.30;99.90
9658;DHT22;4867;48.112;11.622;2022-12-29T17:33:33;9.30;99.90
9658;DHT22;4867;48.112;11.622;2022-12-29T17:36:01;9.30;99.90
9658;DHT22;4867;48.112;11.622;2022-12-29T17:38:30;9.30;99.90
9658;DHT22;4867;48.112;11.622;2022-12-29T17:40:58;9.30;99.90
9658;DHT22;4867;48.112;11.622;2022-12-29T17:43:26;9.30;99.90
9658;DHT22;4867;48.112;11.622;2022-12-29T17:46:05;9.30;99.90
9658;DHT22;4867;48.112;11.622;2022-12-29T17:48:33;9.40;99.90
9658;DHT22;4867;48.112;11.622;2022-12-29T17:51:00;9.40;99.90
9658;DHT22;4867;48.112;11.622;2022-12-29T17:53:29;9.40;99.90
9658;DHT22;4867;48.112;11.622;2022-12-29T17:55:56;9.30;99.90
9658;DHT22;4867;48.112;11.622;2022-12-29T17:58:26;9.40;99.90
9658;DHT22;4867;48.112;11.622;2022-12-29T18:00:55;9.40;99.90
9658;DHT22;4867;48.112;11.622;2022-12-29T18:03:27;9.30;99.90
9658;DHT22;4867;48.112;11.622;2022-12-29T18:05:55;9.40;99.90
9658;DHT22;4867;48.112;11.622;2022-12-29T18:08:22;9.30;99.90
9658;DHT22;4867;48.112;11.622;2022-12-29T18:10:50;9.30;99.90
9658;DHT22;4867;48.112;11.622;2022-12-29T18:13:26;9.30;99.90
9658;DHT22;4867;48.112;11.622;2022-12-29T18:16:05;9.20;99.90
9658;DHT22;4867;48.112;11.622;2022-12-29T18:18:32;9.20;99.90
9658;DHT22;4867;48.112;11.622;2022-12-29T18:20:59;9.20;99.90
9658;DHT22;4867;48.112;11.622;2022-12-29T18:23:29;9.10;99.90
9658;DHT22;4867;48.112;11.622;2022-12-29T18:26:06;9.10;99.90
9658;DHT22;4867;48.112;11.622;2022-12-29T18:28:38;9.10;99.90
9658;DHT22;4867;48.112;11.622;2022-12-29T18:31:18;9.00;99.90
9658;DHT22;4867;48.112;11.622;2022-12-29T18:33:47;9.00;99.90
9658;DHT22;4867;48.112;11.622;2022-12-29T18:36:15;8.90;99.90
9658;DHT22;4867;48.112;11.622;2022-12-29T18:38:43;8.80;99.90